Catoosa, OK (74015)

11:20 CDT le 23 septembre 2014 (GMT -0500)
Catoosa | Change Station
CLOSE
Current Station
Stations météorologiques personnelles
Location: Catoosa, OK
Altitude: 636 ft
Stations météo à proximité

Alt. 636 ft 36.18 °N, 95.75 °W | Updated 1 second ago

Partiellement nuageux
Partiellement nuageux
72.6 ° F
Paraît 76 ° F
N
2.2
Vent Variable Vent de SE
Gusts 11.5 mph

Aujourd'hui
Haut(e) -- | Bas -- ° F
--% Risque de précip.
Hier
Haut(e) -- | Bas -- ° F
Precip. -- pouce
7:11 AM 7:18 PM
Lune descendante, 0% visible
Pression 30.24 pouce
Visibilité 10.0 Miles terrestres
Nuages Peu 12000 ft
Nuages épars 16000 ft
Nuageux 25000 ft
indice de chaleur 76 ° F
Point de rosée 57 ° F
Humidité 58%
Précipitations 0.00 pouce
Profondeur de la couche neigeuse Non disponible.
UV 3 sur 12
Pollen 8.80 sur 12
Qualité de l'air Non disponible.
Flu Activity Non disponible.
METAR KTUL 231553Z 18011KT 10SM FEW120 SCT160 BKN250 22/13 A3025 RMK AO2 SLP238 ACC W T02170128

More Conditions Fewer Conditions

Pression 30.24 pouce
Visibilité 10.0 Miles terrestres
Nuages Peu 12000 ft
Nuages épars 16000 ft
Nuageux 25000 ft
indice de chaleur 76 ° F
Point de rosée 57 ° F
Humidité 58%
Précipitations 0.00 pouce
Profondeur de la couche neigeuse Non disponible.
UV 3 sur 12
Pollen 8.80 sur 12
Qualité de l'air Non disponible.
Flu Activity Non disponible.
METAR KTUL 231553Z 18011KT 10SM FEW120 SCT160 BKN250 22/13 A3025 RMK AO2 SLP238 ACC W T02170128

More Conditions Fewer Conditions

10-Day Weather Forecast

Almanac

Astronomie

Sep. 23, 2014 Lever Coucher
Temps réel 07:11 CDT 19:18 CDT
Crépuscule civil 06:46 CDT 19:43 CDT
Crépuscule nautique 06:16 CDT 20:13 CDT
Crépuscule astronomique 05:45 CDT 20:44 CDT
Lune 06:37 CDT 18:58 CDT
Durée de lumière visible 12h 57m
Longueur du jour
12h 06m
Tomorrow will be 2m 16s shorter.
Lune descendante, 0% of the Moon is Illuminated
Aujourd'hui
Lune descendante
Sep 24
Nouveau
Oct 1
Premier quartier
Oct 8
Pleine lune
Oct 15
Dernier quartier

Extrêmes aujourd'hui

State Highs State Lows

Community

WunderPhotos

Upload Photos

1,755,737 Photos téléchargées !

WunderBlogs® & News

By Dr. Jeff Masters
Director of Meteorology, Weather Underground
By Kari Strenfel
Meteorologist, Weather Underground
By Christopher C. Burt
Weather Historian, Weather Underground
September 23, 2014
September 23, 2014
September 23, 2014

Nearby

Épaisseur de neige

Station Depth Altitude
Pas de nouvelles chutes de neige

Activité sismique

Ville Distance Mag. Time & Date
Lindsay, Oklahoma 148 Miles terrestres 3.0 08:37 CDT
2014-09-23
Boley, Oklahoma 66 Miles terrestres 3.4 02:58 CDT
2014-09-23
Perry, Oklahoma 93 Miles terrestres 2.7 19:24 CDT
2014-09-22
Bray, Oklahoma 149 Miles terrestres 3.6 14:28 CDT
2014-09-22
Minimum magnitude displayed is 2.5.

Températures des eaux côtières

Lieu Température
Aucun rapport de station

Stations météo à proximité